sensor_id;sensor_type;location;lat;lon;timestamp;pressure;altitude;pressure_sealevel;temperature;humidity
39739;BME280;25422;48.286;8.484;2023-04-07T00:01:20;94004.44;;;2.94;100.00
39739;BME280;25422;48.286;8.484;2023-04-07T00:03:46;94005.00;;;2.97;100.00
39739;BME280;25422;48.286;8.484;2023-04-07T00:06:12;94014.50;;;2.97;100.00
39739;BME280;25422;48.286;8.484;2023-04-07T00:08:38;94008.53;;;2.96;100.00
39739;BME280;25422;48.286;8.484;2023-04-07T00:11:03;94007.16;;;2.92;100.00
39739;BME280;25422;48.286;8.484;2023-04-07T00:13:29;94001.03;;;2.93;100.00
39739;BME280;25422;48.286;8.484;2023-04-07T00:15:54;93997.88;;;2.90;100.00
39739;BME280;25422;48.286;8.484;2023-04-07T00:18:19;94000.06;;;2.94;100.00
39739;BME280;25422;48.286;8.484;2023-04-07T00:20:45;94001.97;;;2.92;100.00
39739;BME280;25422;48.286;8.484;2023-04-07T00:23:10;93994.81;;;2.96;100.00
39739;BME280;25422;48.286;8.484;2023-04-07T00:25:36;93991.38;;;2.95;100.00
39739;BME280;25422;48.286;8.484;2023-04-07T00:28:01;93988.53;;;2.98;100.00
39739;BME280;25422;48.286;8.484;2023-04-07T00:30:27;93979.53;;;2.93;100.00
39739;BME280;25422;48.286;8.484;2023-04-07T00:32:53;93969.91;;;2.95;100.00
39739;BME280;25422;48.286;8.484;2023-04-07T00:35:18;93960.19;;;2.87;100.00
39739;BME280;25422;48.286;8.484;2023-04-07T00:37:43;93958.81;;;2.83;100.00
39739;BME280;25422;48.286;8.484;2023-04-07T00:40:09;93964.69;;;2.85;100.00
39739;BME280;25422;48.286;8.484;2023-04-07T00:42:35;93960.63;;;2.92;100.00
39739;BME280;25422;48.286;8.484;2023-04-07T00:45:00;93956.41;;;2.91;100.00
39739;BME280;25422;48.286;8.484;2023-04-07T00:47:26;93956.84;;;2.96;100.00
39739;BME280;25422;48.286;8.484;2023-04-07T00:49:51;93954.25;;;2.96;100.00
39739;BME280;25422;48.286;8.484;2023-04-07T00:52:18;93949.75;;;2.98;100.00
39739;BME280;25422;48.286;8.484;2023-04-07T00:54:44;93940.63;;;2.94;100.00
39739;BME280;25422;48.286;8.484;2023-04-07T00:57:11;93944.06;;;2.95;100.00
39739;BME280;25422;48.286;8.484;2023-04-07T00:59:36;93946.91;;;2.92;100.00
39739;BME280;25422;48.286;8.484;2023-04-07T01:02:09;93940.63;;;2.94;100.00
39739;BME280;25422;48.286;8.484;2023-04-07T01:05:06;93937.28;;;3.03;100.00
39739;BME280;25422;48.286;8.484;2023-04-07T01:07:38;93939.19;;;3.01;100.00
39739;BME280;25422;48.286;8.484;2023-04-07T01:10:14;93935.22;;;2.97;100.00
39739;BME280;25422;48.286;8.484;2023-04-07T01:13:04;93940.81;;;3.02;100.00
39739;BME280;25422;48.286;8.484;2023-04-07T01:15:32;93934.69;;;3.03;100.00
39739;BME280;25422;48.286;8.484;2023-04-07T01:18:07;93930.47;;;3.02;100.00
39739;BME280;25422;48.286;8.484;2023-04-07T01:20:34;93931.97;;;3.05;100.00
39739;BME280;25422;48.286;8.484;2023-04-07T01:23:04;93930.75;;;2.99;100.00
39739;BME280;25422;48.286;8.484;2023-04-07T01:28:48;93920.81;;;2.95;100.00
39739;BME280;25422;48.286;8.484;2023-04-07T01:31:21;93922.94;;;2.90;100.00
39739;BME280;25422;48.286;8.484;2023-04-07T01:33:48;93924.41;;;2.82;100.00
39739;BME280;25422;48.286;8.484;2023-04-07T01:36:15;93920.06;;;2.83;100.00
39739;BME280;25422;48.286;8.484;2023-04-07T01:38:42;93920.06;;;2.83;100.00
39739;BME280;25422;48.286;8.484;2023-04-07T01:41:08;93913.56;;;2.89;100.00
39739;BME280;25422;48.286;8.484;2023-04-07T01:43:36;93915.06;;;2.91;100.00
39739;BME280;25422;48.286;8.484;2023-04-07T01:46:03;93908.81;;;2.94;100.00
39739;BME280;25422;48.286;8.484;2023-04-07T01:48:29;93909.22;;;2.89;100.00
39739;BME280;25422;48.286;8.484;2023-04-07T01:50:55;93902.13;;;2.91;100.00
39739;BME280;25422;48.286;8.484;2023-04-07T01:53:22;93905.13;;;2.86;100.00
39739;BME280;25422;48.286;8.484;2023-04-07T01:55:47;93903.03;;;2.80;100.00
39739;BME280;25422;48.286;8.484;2023-04-07T01:58:13;93904.41;;;2.84;100.00
39739;BME280;25422;48.286;8.484;2023-04-07T02:00:41;93907.19;;;2.93;100.00
39739;BME280;25422;48.286;8.484;2023-04-07T02:03:21;93895.16;;;2.82;100.00
39739;BME280;25422;48.286;8.484;2023-04-07T02:05:49;93907.41;;;2.80;100.00
39739;BME280;25422;48.286;8.484;2023-04-07T02:08:18;93905.00;;;2.88;100.00
39739;BME280;25422;48.286;8.484;2023-04-07T02:10:47;93906.47;;;2.81;100.00
39739;BME280;25422;48.286;8.484;2023-04-07T02:13:17;93906.06;;;2.85;100.00
39739;BME280;25422;48.286;8.484;2023-04-07T02:15:43;93902.47;;;2.77;100.00
39739;BME280;25422;48.286;8.484;2023-04-07T02:18:12;93892.94;;;2.67;100.00
39739;BME280;25422;48.286;8.484;2023-04-07T02:20:39;93891.78;;;2.60;100.00
39739;BME280;25422;48.286;8.484;2023-04-07T02:23:09;93885.00;;;2.59;100.00
39739;BME280;25422;48.286;8.484;2023-04-07T02:25:34;93881.47;;;2.60;100.00
39739;BME280;25422;48.286;8.484;2023-04-07T02:28:02;93876.88;;;2.64;100.00
39739;BME280;25422;48.286;8.484;2023-04-07T02:30:29;93877.69;;;2.64;100.00
39739;BME280;25422;48.286;8.484;2023-04-07T02:32:54;93883.72;;;2.75;100.00
39739;BME280;25422;48.286;8.484;2023-04-07T02:35:20;93874.19;;;2.75;100.00
39739;BME280;25422;48.286;8.484;2023-04-07T02:37:46;93870.09;;;2.73;100.00
39739;BME280;25422;48.286;8.484;2023-04-07T02:40:12;93873.66;;;2.72;100.00
39739;BME280;25422;48.286;8.484;2023-04-07T02:42:37;93877.44;;;2.67;100.00
39739;BME280;25422;48.286;8.484;2023-04-07T02:45:06;93872.00;;;2.70;100.00
39739;BME280;25422;48.286;8.484;2023-04-07T02:47:35;93867.28;;;2.76;100.00
39739;BME280;25422;48.286;8.484;2023-04-07T02:50:01;93864.56;;;2.77;100.00
39739;BME280;25422;48.286;8.484;2023-04-07T02:52:26;93863.63;;;2.78;100.00
39739;BME280;25422;48.286;8.484;2023-04-07T02:54:52;93866.22;;;2.78;100.00
39739;BME280;25422;48.286;8.484;2023-04-07T02:57:21;93864.56;;;2.77;100.00
39739;BME280;25422;48.286;8.484;2023-04-07T02:59:50;93860.75;;;2.72;100.00
39739;BME280;25422;48.286;8.484;2023-04-07T03:02:15;93854.31;;;2.66;100.00
39739;BME280;25422;48.286;8.484;2023-04-07T03:04:41;93863.44;;;2.70;100.00
39739;BME280;25422;48.286;8.484;2023-04-07T03:07:06;93856.78;;;2.67;100.00
39739;BME280;25422;48.286;8.484;2023-04-07T03:09:32;93863.31;;;2.72;100.00
39739;BME280;25422;48.286;8.484;2023-04-07T03:11:57;93858.38;;;2.68;100.00
39739;BME280;25422;48.286;8.484;2023-04-07T03:14:26;93861.94;;;2.67;100.00
39739;BME280;25422;48.286;8.484;2023-04-07T03:16:53;93861.25;;;2.65;100.00
39739;BME280;25422;48.286;8.484;2023-04-07T03:19:20;93850.78;;;2.67;100.00
39739;BME280;25422;48.286;8.484;2023-04-07T03:21:48;93842.09;;;2.68;100.00
39739;BME280;25422;48.286;8.484;2023-04-07T03:24:13;93840.44;;;2.67;100.00
39739;BME280;25422;48.286;8.484;2023-04-07T03:26:38;93830.25;;;2.65;100.00
39739;BME280;25422;48.286;8.484;2023-04-07T03:29:10;93831.34;;;2.73;100.00
39739;BME280;25422;48.286;8.484;2023-04-07T03:31:36;93827.09;;;2.62;100.00
39739;BME280;25422;48.286;8.484;2023-04-07T03:34:02;93823.97;;;2.58;100.00
39739;BME280;25422;48.286;8.484;2023-04-07T03:36:29;93824.09;;;2.57;100.00
39739;BME280;25422;48.286;8.484;2023-04-07T03:38:59;93814.53;;;2.47;100.00
39739;BME280;25422;48.286;8.484;2023-04-07T03:41:25;93812.22;;;2.44;100.00
39739;BME280;25422;48.286;8.484;2023-04-07T03:43:51;93814.09;;;2.42;100.00
39739;BME280;25422;48.286;8.484;2023-04-07T03:46:20;93816.13;;;2.39;100.00
39739;BME280;25422;48.286;8.484;2023-04-07T03:48:46;93829.56;;;2.32;100.00
39739;BME280;25422;48.286;8.484;2023-04-07T03:51:11;93835.22;;;2.26;100.00
39739;BME280;25422;48.286;8.484;2023-04-07T03:53:38;93836.28;;;2.24;100.00
39739;BME280;25422;48.286;8.484;2023-04-07T03:56:27;93826.09;;;2.22;100.00
39739;BME280;25422;48.286;8.484;2023-04-07T03:58:52;93820.56;;;2.27;100.00
39739;BME280;25422;48.286;8.484;2023-04-07T04:01:40;93816.59;;;2.23;100.00
39739;BME280;25422;48.286;8.484;2023-04-07T04:04:10;93809.53;;;2.25;100.00
39739;BME280;25422;48.286;8.484;2023-04-07T04:06:36;93798.59;;;2.32;100.00
39739;BME280;25422;48.286;8.484;2023-04-07T04:09:10;93794.88;;;2.25;100.00
39739;BME280;25422;48.286;8.484;2023-04-07T04:11:41;93796.75;;;2.23;100.00
39739;BME280;25422;48.286;8.484;2023-04-07T04:14:06;93799.75;;;2.18;100.00
39739;BME280;25422;48.286;8.484;2023-04-07T04:16:34;93804.34;;;2.15;100.00
39739;BME280;25422;48.286;8.484;2023-04-07T04:19:03;93808.91;;;2.11;100.00
39739;BME280;25422;48.286;8.484;2023-04-07T04:21:29;93804.81;;;2.09;100.00
39739;BME280;25422;48.286;8.484;2023-04-07T04:23:55;93815.16;;;2.09;100.00
39739;BME280;25422;48.286;8.484;2023-04-07T04:26:21;93814.59;;;2.05;100.00
39739;BME280;25422;48.286;8.484;2023-04-07T04:28:51;93810.25;;;2.06;100.00
39739;BME280;25422;48.286;8.484;2023-04-07T04:31:18;93811.06;;;2.06;100.00
39739;BME280;25422;48.286;8.484;2023-04-07T04:33:45;93807.00;;;2.04;100.00
39739;BME280;25422;48.286;8.484;2023-04-07T04:36:10;93805.84;;;1.96;100.00
39739;BME280;25422;48.286;8.484;2023-04-07T04:38:36;93811.41;;;1.92;100.00
39739;BME280;25422;48.286;8.484;2023-04-07T04:41:13;93807.97;;;1.91;100.00
39739;BME280;25422;48.286;8.484;2023-04-07T04:43:38;93813.28;;;1.90;100.00
39739;BME280;25422;48.286;8.484;2023-04-07T04:46:05;93815.72;;;1.91;100.00
39739;BME280;25422;48.286;8.484;2023-04-07T04:48:36;93821.84;;;1.90;100.00
39739;BME280;25422;48.286;8.484;2023-04-07T04:51:04;93809.50;;;1.94;100.00
39739;BME280;25422;48.286;8.484;2023-04-07T04:53:30;93813.72;;;1.95;100.00
39739;BME280;25422;48.286;8.484;2023-04-07T04:55:59;93812.47;;;1.89;100.00
39739;BME280;25422;48.286;8.484;2023-04-07T04:58:45;93820.19;;;1.89;100.00
39739;BME280;25422;48.286;8.484;2023-04-07T05:01:15;93808.69;;;1.93;100.00
39739;BME280;25422;48.286;8.484;2023-04-07T05:03:49;93815.50;;;1.94;100.00
39739;BME280;25422;48.286;8.484;2023-04-07T05:06:20;93805.63;;;1.99;100.00
39739;BME280;25422;48.286;8.484;2023-04-07T05:08:48;93808.88;;;2.01;100.00
39739;BME280;25422;48.286;8.484;2023-04-07T05:11:16;93801.84;;;2.04;100.00
39739;BME280;25422;48.286;8.484;2023-04-07T05:13:44;93804.28;;;2.05;100.00
39739;BME280;25422;48.286;8.484;2023-04-07T05:16:10;93805.28;;;2.14;100.00
39739;BME280;25422;48.286;8.484;2023-04-07T05:18:35;93807.53;;;2.28;100.00
39739;BME280;25422;48.286;8.484;2023-04-07T05:21:02;93797.69;;;2.43;100.00
39739;BME280;25422;48.286;8.484;2023-04-07T05:23:30;93801.81;;;2.56;100.00
39739;BME280;25422;48.286;8.484;2023-04-07T05:25:56;93808.00;;;2.74;100.00
39739;BME280;25422;48.286;8.484;2023-04-07T05:28:22;93801.50;;;2.90;100.00
39739;BME280;25422;48.286;8.484;2023-04-07T05:30:49;93798.41;;;3.06;100.00
39739;BME280;25422;48.286;8.484;2023-04-07T05:33:15;93794.06;;;3.16;100.00
39739;BME280;25422;48.286;8.484;2023-04-07T05:35:45;93802.81;;;3.25;100.00
39739;BME280;25422;48.286;8.484;2023-04-07T05:38:11;93796.13;;;3.42;100.00
39739;BME280;25422;48.286;8.484;2023-04-07T05:40:38;93786.59;;;3.62;100.00
39739;BME280;25422;48.286;8.484;2023-04-07T05:43:07;93796.16;;;3.61;100.00
39739;BME280;25422;48.286;8.484;2023-04-07T05:45:33;93791.75;;;4.01;100.00
39739;BME280;25422;48.286;8.484;2023-04-07T05:47:58;93795.28;;;4.85;100.00
39739;BME280;25422;48.286;8.484;2023-04-07T05:50:32;93791.91;;;5.66;100.00
39739;BME280;25422;48.286;8.484;2023-04-07T05:53:02;93797.00;;;6.38;100.00
39739;BME280;25422;48.286;8.484;2023-04-07T05:55:27;93792.47;;;7.09;100.00
39739;BME280;25422;48.286;8.484;2023-04-07T05:57:53;93792.50;;;7.18;100.00
39739;BME280;25422;48.286;8.484;2023-04-07T06:00:21;93791.25;;;6.87;100.00
39739;BME280;25422;48.286;8.484;2023-04-07T06:02:56;93794.31;;;6.22;100.00
39739;BME280;25422;48.286;8.484;2023-04-07T06:05:23;93797.44;;;5.53;100.00
39739;BME280;25422;48.286;8.484;2023-04-07T06:07:52;93802.78;;;5.16;100.00
39739;BME280;25422;48.286;8.484;2023-04-07T06:10:19;93800.13;;;4.98;100.00
39739;BME280;25422;48.286;8.484;2023-04-07T06:12:44;93804.97;;;4.83;100.00
39739;BME280;25422;48.286;8.484;2023-04-07T06:15:10;93812.53;;;5.04;100.00
39739;BME280;25422;48.286;8.484;2023-04-07T06:17:36;93813.47;;;5.03;100.00
39739;BME280;25422;48.286;8.484;2023-04-07T06:20:02;93811.34;;;5.16;100.00
39739;BME280;25422;48.286;8.484;2023-04-07T06:22:31;93808.44;;;5.29;100.00
39739;BME280;25422;48.286;8.484;2023-04-07T06:24:58;93800.81;;;6.26;100.00
39739;BME280;25422;48.286;8.484;2023-04-07T06:27:24;93803.16;;;6.98;100.00
39739;BME280;25422;48.286;8.484;2023-04-07T06:29:49;93802.03;;;8.01;100.00
39739;BME280;25422;48.286;8.484;2023-04-07T06:32:15;93805.09;;;8.71;100.00
39739;BME280;25422;48.286;8.484;2023-04-07T06:34:41;93803.63;;;9.48;100.00
39739;BME280;25422;48.286;8.484;2023-04-07T06:37:07;93808.28;;;10.68;92.78
39739;BME280;25422;48.286;8.484;2023-04-07T06:39:33;93808.94;;;10.70;93.03
39739;BME280;25422;48.286;8.484;2023-04-07T06:41:58;93810.91;;;10.98;85.28
39739;BME280;25422;48.286;8.484;2023-04-07T06:44:24;93810.34;;;11.18;80.08
39739;BME280;25422;48.286;8.484;2023-04-07T06:46:49;93806.75;;;9.98;87.21
39739;BME280;25422;48.286;8.484;2023-04-07T06:49:18;93804.53;;;9.32;93.99
39739;BME280;25422;48.286;8.484;2023-04-07T06:51:43;93807.19;;;8.75;98.78
39739;BME280;25422;48.286;8.484;2023-04-07T06:54:08;93806.13;;;7.96;100.00
39739;BME280;25422;48.286;8.484;2023-04-07T06:56:38;93814.00;;;7.36;100.00
39739;BME280;25422;48.286;8.484;2023-04-07T06:59:04;93812.09;;;7.47;100.00
39739;BME280;25422;48.286;8.484;2023-04-07T07:01:29;93817.59;;;7.35;100.00
39739;BME280;25422;48.286;8.484;2023-04-07T07:03:55;93814.69;;;6.96;100.00
39739;BME280;25422;48.286;8.484;2023-04-07T07:06:20;93818.38;;;6.85;100.00
39739;BME280;25422;48.286;8.484;2023-04-07T07:08:45;93820.88;;;6.68;100.00
39739;BME280;25422;48.286;8.484;2023-04-07T07:11:11;93824.13;;;6.62;100.00
39739;BME280;25422;48.286;8.484;2023-04-07T07:13:36;93816.66;;;6.41;100.00
39739;BME280;25422;48.286;8.484;2023-04-07T07:16:02;93819.69;;;6.54;100.00
39739;BME280;25422;48.286;8.484;2023-04-07T07:18:27;93824.19;;;6.52;100.00
39739;BME280;25422;48.286;8.484;2023-04-07T07:20:52;93822.38;;;6.45;100.00
39739;BME280;25422;48.286;8.484;2023-04-07T07:23:18;93819.22;;;6.59;100.00
39739;BME280;25422;48.286;8.484;2023-04-07T07:25:43;93821.13;;;6.49;100.00
39739;BME280;25422;48.286;8.484;2023-04-07T07:28:09;93827.53;;;6.63;100.00
39739;BME280;25422;48.286;8.484;2023-04-07T07:30:34;93828.09;;;6.74;100.00
39739;BME280;25422;48.286;8.484;2023-04-07T07:33:00;93813.13;;;7.11;100.00
39739;BME280;25422;48.286;8.484;2023-04-07T07:35:25;93815.63;;;7.37;100.00
39739;BME280;25422;48.286;8.484;2023-04-07T07:37:51;93812.63;;;7.91;100.00
39739;BME280;25422;48.286;8.484;2023-04-07T07:40:17;93813.25;;;8.59;100.00
39739;BME280;25422;48.286;8.484;2023-04-07T07:42:42;93812.44;;;9.47;97.44
39739;BME280;25422;48.286;8.484;2023-04-07T07:45:08;93808.09;;;10.70;84.46
39739;BME280;25422;48.286;8.484;2023-04-07T07:47:34;93804.97;;;11.04;78.38
39739;BME280;25422;48.286;8.484;2023-04-07T07:50:02;93808.47;;;11.63;68.72
39739;BME280;25422;48.286;8.484;2023-04-07T07:52:28;93797.19;;;11.62;67.95
39739;BME280;25422;48.286;8.484;2023-04-07T07:54:53;93801.25;;;11.87;67.14
39739;BME280;25422;48.286;8.484;2023-04-07T07:57:19;93804.97;;;11.92;68.84
39739;BME280;25422;48.286;8.484;2023-04-07T07:59:44;93808.16;;;12.31;68.73
39739;BME280;25422;48.286;8.484;2023-04-07T08:02:10;93806.91;;;12.27;64.83
39739;BME280;25422;48.286;8.484;2023-04-07T08:04:36;93813.22;;;12.11;66.46
39739;BME280;25422;48.286;8.484;2023-04-07T08:07:02;93810.47;;;12.19;66.04
39739;BME280;25422;48.286;8.484;2023-04-07T08:09:28;93811.47;;;13.03;64.58
39739;BME280;25422;48.286;8.484;2023-04-07T08:11:53;93808.94;;;12.31;66.64
39739;BME280;25422;48.286;8.484;2023-04-07T08:14:18;93815.88;;;11.59;67.90
39739;BME280;25422;48.286;8.484;2023-04-07T08:16:44;93815.97;;;11.00;74.24
39739;BME280;25422;48.286;8.484;2023-04-07T08:19:11;93821.22;;;9.85;81.64
39739;BME280;25422;48.286;8.484;2023-04-07T08:21:37;93817.59;;;10.33;81.01
39739;BME280;25422;48.286;8.484;2023-04-07T08:24:03;93826.31;;;10.02;90.06
39739;BME280;25422;48.286;8.484;2023-04-07T08:26:29;93815.97;;;9.31;98.36
39739;BME280;25422;48.286;8.484;2023-04-07T08:28:54;93822.72;;;9.08;100.00
39739;BME280;25422;48.286;8.484;2023-04-07T08:31:20;93828.03;;;8.84;100.00
39739;BME280;25422;48.286;8.484;2023-04-07T08:33:45;93822.22;;;8.32;100.00
39739;BME280;25422;48.286;8.484;2023-04-07T08:36:11;93831.34;;;8.28;100.00
39739;BME280;25422;48.286;8.484;2023-04-07T08:38:37;93826.78;;;8.22;100.00
39739;BME280;25422;48.286;8.484;2023-04-07T08:41:16;93840.47;;;8.24;100.00
39739;BME280;25422;48.286;8.484;2023-04-07T08:43:43;93836.25;;;7.98;100.00
39739;BME280;25422;48.286;8.484;2023-04-07T08:46:10;93839.81;;;7.89;100.00
39739;BME280;25422;48.286;8.484;2023-04-07T08:48:37;93837.19;;;7.81;100.00
39739;BME280;25422;48.286;8.484;2023-04-07T08:51:06;93841.56;;;7.64;100.00
39739;BME280;25422;48.286;8.484;2023-04-07T08:53:42;93839.97;;;7.87;100.00
39739;BME280;25422;48.286;8.484;2023-04-07T08:56:10;93845.34;;;7.78;100.00
39739;BME280;25422;48.286;8.484;2023-04-07T08:58:36;93840.94;;;7.86;100.00
39739;BME280;25422;48.286;8.484;2023-04-07T09:01:04;93844.06;;;7.90;100.00
39739;BME280;25422;48.286;8.484;2023-04-07T09:03:32;93845.19;;;7.96;100.00
39739;BME280;25422;48.286;8.484;2023-04-07T09:06:00;93847.97;;;8.02;100.00
39739;BME280;25422;48.286;8.484;2023-04-07T09:08:25;93847.50;;;8.23;100.00
39739;BME280;25422;48.286;8.484;2023-04-07T09:10:51;93849.59;;;8.53;100.00
39739;BME280;25422;48.286;8.484;2023-04-07T09:13:17;93848.97;;;8.51;100.00
39739;BME280;25422;48.286;8.484;2023-04-07T09:15:42;93846.69;;;8.64;100.00
39739;BME280;25422;48.286;8.484;2023-04-07T09:18:08;93846.00;;;8.70;100.00
39739;BME280;25422;48.286;8.484;2023-04-07T09:20:59;93840.22;;;9.39;100.00
39739;BME280;25422;48.286;8.484;2023-04-07T09:23:33;93839.63;;;9.92;96.92
39739;BME280;25422;48.286;8.484;2023-04-07T09:28:44;93843.31;;;10.21;87.42
39739;BME280;25422;48.286;8.484;2023-04-07T09:31:09;93845.09;;;10.05;89.43
39739;BME280;25422;48.286;8.484;2023-04-07T09:33:35;93839.97;;;10.12;89.49
39739;BME280;25422;48.286;8.484;2023-04-07T09:36:02;93840.84;;;10.04;89.39
39739;BME280;25422;48.286;8.484;2023-04-07T09:38:35;93849.13;;;9.85;90.21
39739;BME280;25422;48.286;8.484;2023-04-07T09:41:14;93845.47;;;9.94;92.68
39739;BME280;25422;48.286;8.484;2023-04-07T09:43:44;93840.41;;;9.92;88.54
39739;BME280;25422;48.286;8.484;2023-04-07T09:46:15;93847.00;;;10.88;82.55
39739;BME280;25422;48.286;8.484;2023-04-07T09:48:43;93845.78;;;11.65;77.65
39739;BME280;25422;48.286;8.484;2023-04-07T09:51:11;93846.56;;;11.29;74.58
39739;BME280;25422;48.286;8.484;2023-04-07T09:53:46;93836.06;;;11.59;73.63
39739;BME280;25422;48.286;8.484;2023-04-07T09:56:16;93837.78;;;10.92;75.99
39739;BME280;25422;48.286;8.484;2023-04-07T09:58:43;93838.56;;;10.48;75.76
39739;BME280;25422;48.286;8.484;2023-04-07T10:01:09;93845.34;;;10.10;81.24
39739;BME280;25422;48.286;8.484;2023-04-07T10:03:36;93844.25;;;9.82;96.04
39739;BME280;25422;48.286;8.484;2023-04-07T10:06:03;93842.75;;;9.24;94.54
39739;BME280;25422;48.286;8.484;2023-04-07T10:08:33;93848.13;;;9.23;96.43
39739;BME280;25422;48.286;8.484;2023-04-07T10:11:00;93839.97;;;9.26;98.82
39739;BME280;25422;48.286;8.484;2023-04-07T10:13:29;93843.59;;;9.48;95.45
39739;BME280;25422;48.286;8.484;2023-04-07T10:15:55;93846.66;;;9.60;93.50
39739;BME280;25422;48.286;8.484;2023-04-07T10:18:22;93844.16;;;9.67;93.53
39739;BME280;25422;48.286;8.484;2023-04-07T10:20:53;93836.03;;;9.30;93.97
39739;BME280;25422;48.286;8.484;2023-04-07T10:23:24;93849.22;;;8.89;100.00
39739;BME280;25422;48.286;8.484;2023-04-07T10:25:53;93854.19;;;8.59;100.00
39739;BME280;25422;48.286;8.484;2023-04-07T10:28:23;93849.28;;;8.23;100.00
39739;BME280;25422;48.286;8.484;2023-04-07T10:30:50;93843.38;;;7.88;100.00
39739;BME280;25422;48.286;8.484;2023-04-07T10:33:16;93854.09;;;7.68;100.00
39739;BME280;25422;48.286;8.484;2023-04-07T10:36:05;93851.31;;;7.62;100.00
39739;BME280;25422;48.286;8.484;2023-04-07T10:38:31;93842.06;;;7.67;100.00
39739;BME280;25422;48.286;8.484;2023-04-07T10:40:57;93845.34;;;7.86;100.00
39739;BME280;25422;48.286;8.484;2023-04-07T10:43:40;93848.28;;;7.83;100.00
39739;BME280;25422;48.286;8.484;2023-04-07T10:46:08;93853.69;;;8.14;100.00
39739;BME280;25422;48.286;8.484;2023-04-07T10:48:33;93850.91;;;7.99;100.00
39739;BME280;25422;48.286;8.484;2023-04-07T10:53:31;93868.44;;;7.81;100.00
39739;BME280;25422;48.286;8.484;2023-04-07T10:55:58;93863.44;;;8.12;100.00
39739;BME280;25422;48.286;8.484;2023-04-07T10:58:24;93859.69;;;7.98;100.00
39739;BME280;25422;48.286;8.484;2023-04-07T11:03:39;93857.41;;;8.03;100.00
39739;BME280;25422;48.286;8.484;2023-04-07T11:06:10;93860.38;;;8.17;100.00
39739;BME280;25422;48.286;8.484;2023-04-07T11:08:42;93872.09;;;8.21;100.00
39739;BME280;25422;48.286;8.484;2023-04-07T11:11:10;93867.84;;;8.28;100.00
39739;BME280;25422;48.286;8.484;2023-04-07T11:13:48;93866.88;;;8.54;100.00
39739;BME280;25422;48.286;8.484;2023-04-07T11:16:17;93869.09;;;8.98;100.00
39739;BME280;25422;48.286;8.484;2023-04-07T11:18:44;93865.19;;;8.94;100.00
39739;BME280;25422;48.286;8.484;2023-04-07T11:21:10;93860.25;;;9.07;100.00
39739;BME280;25422;48.286;8.484;2023-04-07T11:23:40;93857.91;;;9.21;100.00
39739;BME280;25422;48.286;8.484;2023-04-07T11:26:07;93860.53;;;9.21;100.00
39739;BME280;25422;48.286;8.484;2023-04-07T11:28:33;93856.56;;;9.33;100.00
39739;BME280;25422;48.286;8.484;2023-04-07T11:30:59;93852.31;;;9.40;100.00
39739;BME280;25422;48.286;8.484;2023-04-07T11:33:26;93857.66;;;9.78;100.00
39739;BME280;25422;48.286;8.484;2023-04-07T11:35:57;93852.97;;;10.20;97.89
39739;BME280;25422;48.286;8.484;2023-04-07T11:38:26;93862.63;;;10.43;95.36
39739;BME280;25422;48.286;8.484;2023-04-07T11:40:52;93859.94;;;10.51;97.99
39739;BME280;25422;48.286;8.484;2023-04-07T11:43:23;93857.75;;;11.08;91.29
39739;BME280;25422;48.286;8.484;2023-04-07T11:46:05;93867.34;;;11.16;86.47
39739;BME280;25422;48.286;8.484;2023-04-07T11:48:32;93863.88;;;10.70;89.02
39739;BME280;25422;48.286;8.484;2023-04-07T11:50:59;93876.47;;;10.52;89.20
39739;BME280;25422;48.286;8.484;2023-04-07T11:53:37;93869.41;;;10.52;90.91
39739;BME280;25422;48.286;8.484;2023-04-07T11:56:11;93865.44;;;10.33;90.79
39739;BME280;25422;48.286;8.484;2023-04-07T11:58:51;93866.63;;;10.07;97.91
39739;BME280;25422;48.286;8.484;2023-04-07T12:01:17;93865.06;;;9.67;97.12
39739;BME280;25422;48.286;8.484;2023-04-07T12:04:01;93864.88;;;9.68;97.01
39739;BME280;25422;48.286;8.484;2023-04-07T12:06:31;93871.78;;;9.30;98.88
39739;BME280;25422;48.286;8.484;2023-04-07T12:09:03;93869.00;;;9.62;98.96
39739;BME280;25422;48.286;8.484;2023-04-07T12:11:29;93865.28;;;9.57;91.19
39739;BME280;25422;48.286;8.484;2023-04-07T12:13:56;93859.63;;;9.76;90.80
39739;BME280;25422;48.286;8.484;2023-04-07T12:16:22;93870.63;;;9.95;95.96
39739;BME280;25422;48.286;8.484;2023-04-07T12:18:48;93869.69;;;9.88;94.51
39739;BME280;25422;48.286;8.484;2023-04-07T12:21:14;93875.91;;;9.55;94.69
39739;BME280;25422;48.286;8.484;2023-04-07T12:23:39;93878.47;;;9.64;99.25
39739;BME280;25422;48.286;8.484;2023-04-07T12:26:06;93878.72;;;9.45;98.74
39739;BME280;25422;48.286;8.484;2023-04-07T12:28:31;93881.69;;;9.34;100.00
39739;BME280;25422;48.286;8.484;2023-04-07T12:30:56;93878.06;;;8.96;100.00
39739;BME280;25422;48.286;8.484;2023-04-07T12:33:22;93881.63;;;9.03;100.00
39739;BME280;25422;48.286;8.484;2023-04-07T12:35:48;93881.22;;;8.66;100.00
39739;BME280;25422;48.286;8.484;2023-04-07T12:38:13;93878.28;;;8.28;100.00
39739;BME280;25422;48.286;8.484;2023-04-07T12:40:39;93888.19;;;8.08;100.00
39739;BME280;25422;48.286;8.484;2023-04-07T12:43:05;93887.66;;;7.88;100.00
39739;BME280;25422;48.286;8.484;2023-04-07T12:45:31;93885.03;;;7.80;100.00
39739;BME280;25422;48.286;8.484;2023-04-07T12:47:58;93887.97;;;7.68;100.00
39739;BME280;25422;48.286;8.484;2023-04-07T12:50:23;93887.38;;;7.91;100.00
39739;BME280;25422;48.286;8.484;2023-04-07T12:52:50;93882.00;;;8.01;100.00
39739;BME280;25422;48.286;8.484;2023-04-07T12:55:16;93884.78;;;8.16;100.00
39739;BME280;25422;48.286;8.484;2023-04-07T12:57:41;93884.78;;;8.40;100.00
39739;BME280;25422;48.286;8.484;2023-04-07T13:00:07;93888.53;;;8.79;100.00
39739;BME280;25422;48.286;8.484;2023-04-07T13:02:33;93885.91;;;8.96;100.00
39739;BME280;25422;48.286;8.484;2023-04-07T13:05:00;93890.59;;;9.00;100.00
39739;BME280;25422;48.286;8.484;2023-04-07T13:07:26;93893.16;;;9.17;100.00
39739;BME280;25422;48.286;8.484;2023-04-07T13:09:51;93883.06;;;9.14;100.00
39739;BME280;25422;48.286;8.484;2023-04-07T13:12:17;93881.78;;;9.49;100.00
39739;BME280;25422;48.286;8.484;2023-04-07T13:14:42;93879.59;;;10.47;100.00